createdAt,value
2023-03-02T00:01:55.400Z,1.50
2023-03-02T00:04:35.570Z,1.20
2023-03-02T00:07:06.147Z,1.40
2023-03-02T00:09:34.755Z,1.40
2023-03-02T00:12:06.016Z,1.40
2023-03-02T00:14:41.137Z,1.50
2023-03-02T00:17:14.304Z,1.17
2023-03-02T00:19:42.086Z,1.15
2023-03-02T00:22:11.036Z,1.30
2023-03-02T00:24:44.384Z,1.45
2023-03-02T00:27:12.480Z,1.30
2023-03-02T00:29:44.512Z,1.23
2023-03-02T00:32:15.985Z,1.35
2023-03-02T00:34:43.830Z,1.20
2023-03-02T00:37:18.464Z,1.10
2023-03-02T00:39:46.681Z,1.30
2023-03-02T00:42:16.734Z,1.15
2023-03-02T00:44:53.452Z,1.25
2023-03-02T00:47:23.624Z,1.40
2023-03-02T00:49:53.662Z,1.10
2023-03-02T00:52:21.365Z,1.05
2023-03-02T00:54:52.263Z,1.00
2023-03-02T00:57:20.624Z,1.20
2023-03-02T00:59:51.918Z,1.10
2023-03-02T01:02:28.022Z,1.20
2023-03-02T01:04:56.336Z,1.10
2023-03-02T01:07:29.904Z,1.20
2023-03-02T01:10:05.485Z,1.13
2023-03-02T01:12:42.288Z,1.30
2023-03-02T01:15:13.846Z,1.15
2023-03-02T01:17:44.449Z,1.20
2023-03-02T01:20:16.504Z,1.23
2023-03-02T01:22:45.074Z,1.15
2023-03-02T01:25:13.587Z,1.30
2023-03-02T01:27:42.411Z,1.30
2023-03-02T01:30:16.389Z,1.40
2023-03-02T01:32:47.256Z,1.10
2023-03-02T01:35:15.396Z,1.02
2023-03-02T01:37:44.302Z,1.20
2023-03-02T01:40:15.276Z,1.10
2023-03-02T01:42:51.810Z,1.20
2023-03-02T01:45:53.219Z,1.10
2023-03-02T01:48:55.115Z,1.10
2023-03-02T01:51:53.243Z,1.00
2023-03-02T01:54:26.610Z,1.10
2023-03-02T01:57:06.148Z,1.17
2023-03-02T01:59:41.673Z,1.20
2023-03-02T02:02:16.983Z,1.10
2023-03-02T02:04:48.999Z,1.00
2023-03-02T02:07:19.439Z,1.00
2023-03-02T02:09:51.679Z,1.00
2023-03-02T02:12:24.780Z,1.10
2023-03-02T02:15:00.611Z,1.00
2023-03-02T02:17:30.124Z,1.05
2023-03-02T02:20:05.951Z,1.10
2023-03-02T02:23:01.698Z,1.30
2023-03-02T02:25:58.209Z,1.00
2023-03-02T02:28:35.011Z,1.00
2023-03-02T02:31:20.480Z,0.88
2023-03-02T02:33:55.684Z,0.98
2023-03-02T02:36:33.684Z,1.25
2023-03-02T02:39:14.164Z,1.05
2023-03-02T02:41:43.780Z,0.80
2023-03-02T02:44:17.364Z,0.90
2023-03-02T02:46:48.066Z,1.02
2023-03-02T02:49:29.618Z,1.00
2023-03-02T02:52:00.229Z,1.08
2023-03-02T02:54:34.530Z,1.08
2023-03-02T02:57:04.246Z,1.00
2023-03-02T02:59:40.837Z,1.10
2023-03-02T03:02:35.030Z,1.20
2023-03-02T03:05:13.469Z,0.95
2023-03-02T03:07:41.297Z,1.00
2023-03-02T03:10:29.582Z,1.05
2023-03-02T03:12:58.009Z,1.02
2023-03-02T03:15:30.154Z,0.90
2023-03-02T03:17:58.776Z,0.90
2023-03-02T03:20:35.651Z,1.05
2023-03-02T03:23:03.506Z,0.90
2023-03-02T03:25:36.925Z,0.85
2023-03-02T03:28:05.821Z,0.93
2023-03-02T03:30:35.801Z,0.88
2023-03-02T03:33:11.050Z,1.10
2023-03-02T03:35:44.351Z,0.90
2023-03-02T03:38:12.422Z,1.10
2023-03-02T03:40:40.316Z,0.95
2023-03-02T03:43:15.206Z,0.93
2023-03-02T03:45:52.581Z,0.70
2023-03-02T03:48:20.657Z,0.85
2023-03-02T03:50:50.705Z,1.10
2023-03-02T03:53:20.995Z,0.93
2023-03-02T03:55:50.961Z,1.05
2023-03-02T03:58:26.476Z,1.00
2023-03-02T04:00:59.979Z,0.90
2023-03-02T04:03:28.584Z,0.98
2023-03-02T04:05:56.482Z,1.00
2023-03-02T04:08:30.577Z,1.00
2023-03-02T04:10:58.245Z,1.05
2023-03-02T04:13:26.257Z,1.08
2023-03-02T04:16:02.426Z,1.23
2023-03-02T04:18:31.270Z,1.10
2023-03-02T04:21:01.263Z,1.17
2023-03-02T04:23:30.199Z,1.00
2023-03-02T04:26:05.223Z,1.00
2023-03-02T04:28:36.146Z,1.05
2023-03-02T04:31:04.521Z,1.10
2023-03-02T04:33:32.513Z,1.25
2023-03-02T04:36:00.409Z,1.02
2023-03-02T04:38:29.991Z,1.20
2023-03-02T04:40:59.023Z,1.20
2023-03-02T04:43:32.374Z,1.20
2023-03-02T04:46:03.141Z,1.45
2023-03-02T04:48:34.213Z,1.30
2023-03-02T04:51:05.158Z,1.15
2023-03-02T04:53:33.158Z,1.35
2023-03-02T04:56:04.286Z,1.50
2023-03-02T04:58:34.110Z,1.20
2023-03-02T05:01:07.316Z,1.40
2023-03-02T05:03:35.142Z,1.25
2023-03-02T05:06:08.594Z,1.30
2023-03-02T05:08:37.935Z,1.30
2023-03-02T05:11:07.799Z,1.25
2023-03-02T05:13:35.920Z,1.08
2023-03-02T05:16:03.743Z,1.38
2023-03-02T05:18:31.705Z,1.27
2023-03-02T05:20:59.390Z,1.55
2023-03-02T05:23:32.060Z,1.30
2023-03-02T05:26:00.205Z,1.25
2023-03-02T05:28:28.374Z,1.55
2023-03-02T05:30:55.912Z,1.60
2023-03-02T05:33:23.699Z,1.50
2023-03-02T05:35:56.295Z,1.67
2023-03-02T05:38:24.888Z,1.55
2023-03-02T05:40:53.196Z,1.60
2023-03-02T05:43:26.110Z,1.60
2023-03-02T05:46:00.461Z,1.50
2023-03-02T05:48:33.465Z,1.60
2023-03-02T05:51:03.517Z,1.60
2023-03-02T05:53:31.193Z,1.83
2023-03-02T05:56:01.600Z,1.80
2023-03-02T05:58:29.332Z,1.80
2023-03-02T06:00:57.078Z,1.85
2023-03-02T06:03:29.001Z,1.70
2023-03-02T06:05:59.094Z,1.50
2023-03-02T06:08:30.063Z,1.80
2023-03-02T06:10:58.862Z,1.70
2023-03-02T06:13:31.429Z,1.85
2023-03-02T06:16:03.274Z,1.70
2023-03-02T06:18:32.091Z,1.70
2023-03-02T06:21:02.937Z,1.80
2023-03-02T06:23:30.955Z,1.80
2023-03-02T06:26:10.345Z,1.60
2023-03-02T06:28:53.128Z,1.80
2023-03-02T06:31:30.829Z,1.88
2023-03-02T06:34:08.777Z,2.00
2023-03-02T06:36:42.131Z,2.08
2023-03-02T06:39:17.092Z,2.20
2023-03-02T06:41:51.227Z,2.03
2023-03-02T06:44:23.208Z,1.95
2023-03-02T06:46:55.877Z,1.80
2023-03-02T06:49:28.036Z,1.90
2023-03-02T06:52:00.630Z,2.10
2023-03-02T06:54:32.818Z,2.08
2023-03-02T06:57:03.574Z,1.90
2023-03-02T06:59:34.220Z,2.13
2023-03-02T07:02:01.917Z,2.10
2023-03-02T07:04:32.733Z,1.98
2023-03-02T07:07:11.195Z,2.03
2023-03-02T07:09:46.442Z,2.35
2023-03-02T07:12:22.092Z,2.20
2023-03-02T07:14:56.081Z,2.15
2023-03-02T07:17:30.193Z,1.80
2023-03-02T07:19:59.193Z,2.20
2023-03-02T07:22:33.505Z,2.25
2023-03-02T07:25:06.440Z,2.20
2023-03-02T07:27:38.922Z,2.33
2023-03-02T07:30:10.012Z,2.28
2023-03-02T07:32:44.774Z,2.90
2023-03-02T07:35:17.553Z,2.33
2023-03-02T07:37:51.754Z,2.50
2023-03-02T07:40:19.908Z,2.40
2023-03-02T07:42:47.907Z,2.50
2023-03-02T07:45:21.398Z,2.28
2023-03-02T07:47:49.287Z,2.45
2023-03-02T07:50:22.272Z,2.60
2023-03-02T07:52:57.599Z,2.42
2023-03-02T07:55:32.431Z,2.20
2023-03-02T07:58:08.696Z,2.55
2023-03-02T08:00:42.823Z,2.55
2023-03-02T08:03:13.073Z,2.60
2023-03-02T08:05:52.492Z,2.50
2023-03-02T08:08:20.846Z,2.45
2023-03-02T08:10:54.628Z,2.65
2023-03-02T08:13:26.284Z,2.40
2023-03-02T08:16:09.284Z,2.60
2023-03-02T08:18:43.160Z,2.72
2023-03-02T08:21:23.632Z,2.47
2023-03-02T08:24:01.013Z,2.63
2023-03-02T08:26:35.798Z,2.80
2023-03-02T08:29:18.400Z,2.80
2023-03-02T08:31:46.386Z,2.53
2023-03-02T08:34:21.000Z,2.83
2023-03-02T08:36:53.123Z,2.58
2023-03-02T08:39:25.939Z,2.70
2023-03-02T08:41:58.842Z,3.03
2023-03-02T08:44:36.580Z,3.05
2023-03-02T08:47:10.246Z,2.65
2023-03-02T08:49:52.781Z,2.72
2023-03-02T08:52:29.437Z,2.67
2023-03-02T08:55:03.875Z,3.08
2023-03-02T08:57:42.697Z,3.00
2023-03-02T09:00:19.805Z,2.90
2023-03-02T09:02:51.254Z,3.10
2023-03-02T09:05:25.254Z,2.80
2023-03-02T09:08:03.425Z,2.85
2023-03-02T09:10:35.700Z,2.97
2023-03-02T09:13:10.966Z,2.75
2023-03-02T09:15:39.618Z,3.10
2023-03-02T09:18:18.407Z,3.00
2023-03-02T09:20:56.587Z,2.80
2023-03-02T09:23:30.432Z,2.70
2023-03-02T09:26:03.922Z,3.00
2023-03-02T09:28:39.966Z,2.80
2023-03-02T09:31:12.629Z,2.63
2023-03-02T09:33:44.089Z,2.65
2023-03-02T09:36:21.997Z,2.85
2023-03-02T09:38:52.024Z,2.53
2023-03-02T09:41:28.070Z,3.20
2023-03-02T09:44:41.157Z,2.90
2023-03-02T09:47:35.515Z,2.70
2023-03-02T09:50:17.649Z,3.00
2023-03-02T09:52:53.586Z,2.80
2023-03-02T09:55:35.424Z,2.78
2023-03-02T09:58:18.149Z,3.17
2023-03-02T10:00:51.473Z,2.92
2023-03-02T10:03:31.252Z,2.80
2023-03-02T10:05:59.582Z,2.85
2023-03-02T10:08:37.843Z,3.08
2023-03-02T10:11:45.127Z,2.70
2023-03-02T10:14:25.860Z,2.83
2023-03-02T10:17:32.823Z,3.05
2023-03-02T10:20:20.622Z,2.70
2023-03-02T10:22:57.799Z,2.88
2023-03-02T10:25:50.394Z,2.65
2023-03-02T10:28:26.619Z,2.60
2023-03-02T10:31:15.021Z,2.45
2023-03-02T10:33:45.321Z,2.70
2023-03-02T10:36:32.100Z,2.60
2023-03-02T10:39:01.231Z,2.80
2023-03-02T10:41:46.120Z,2.75
2023-03-02T10:44:22.882Z,2.92
2023-03-02T10:47:01.961Z,2.70
2023-03-02T10:49:42.675Z,2.55
2023-03-02T10:52:18.331Z,2.40
2023-03-02T10:54:49.895Z,2.50
2023-03-02T10:57:31.955Z,2.83
2023-03-02T11:00:23.849Z,2.60
2023-03-02T11:03:31.623Z,2.28
2023-03-02T11:06:24.030Z,2.67
2023-03-02T11:09:09.582Z,2.50
2023-03-02T11:11:46.254Z,2.17
2023-03-02T11:14:26.545Z,2.28
2023-03-02T11:17:03.652Z,2.25
2023-03-02T11:19:48.773Z,2.33
2023-03-02T11:22:41.622Z,2.28
2023-03-02T11:25:32.228Z,2.33
2023-03-02T11:28:17.946Z,1.95
2023-03-02T11:30:58.863Z,2.20
2023-03-02T11:33:50.650Z,2.38
2023-03-02T11:36:32.629Z,2.10
2023-03-02T11:39:18.510Z,2.20
2023-03-02T11:41:55.034Z,2.38
2023-03-02T11:44:31.804Z,2.50
2023-03-02T11:47:15.681Z,2.20
2023-03-02T11:50:03.092Z,2.30
2023-03-02T11:52:42.272Z,2.10
2023-03-02T11:55:27.569Z,1.75
2023-03-02T11:58:04.861Z,1.70
2023-03-02T12:00:51.207Z,1.90
2023-03-02T12:03:52.081Z,2.20
2023-03-02T12:06:25.442Z,1.95
2023-03-02T12:09:08.145Z,1.77
2023-03-02T12:11:43.534Z,1.90
2023-03-02T12:14:40.998Z,1.88
2023-03-02T12:17:27.964Z,1.83
2023-03-02T12:20:20.896Z,2.10
2023-03-02T12:22:53.618Z,1.88
2023-03-02T12:25:21.835Z,1.70
2023-03-02T12:27:52.681Z,1.70
2023-03-02T12:30:31.733Z,2.05
2023-03-02T12:33:14.441Z,1.65
2023-03-02T12:35:57.227Z,1.80
2023-03-02T12:38:35.199Z,1.85
2023-03-02T12:41:15.668Z,1.80
2023-03-02T12:43:58.614Z,2.00
2023-03-02T12:46:28.812Z,1.65
2023-03-02T12:49:20.532Z,1.70
2023-03-02T12:51:57.788Z,1.50
2023-03-02T12:54:30.862Z,1.63
2023-03-02T12:57:19.198Z,1.83
2023-03-02T13:00:04.510Z,1.50
2023-03-02T13:02:47.579Z,1.70
2023-03-02T13:05:26.117Z,1.70
2023-03-02T13:08:04.873Z,1.70
2023-03-02T13:10:52.203Z,1.38
2023-03-02T13:13:36.882Z,1.50
2023-03-02T13:16:23.971Z,1.60
2023-03-02T13:19:17.489Z,1.60
2023-03-02T13:21:56.730Z,1.50
2023-03-02T13:24:41.322Z,1.58
2023-03-02T13:27:22.064Z,1.55
2023-03-02T13:29:59.413Z,1.42
2023-03-02T13:32:39.612Z,1.40
2023-03-02T13:35:30.386Z,1.60
2023-03-02T13:38:19.354Z,1.52
2023-03-02T13:40:54.166Z,1.60
2023-03-02T13:43:26.054Z,1.48
2023-03-02T13:46:01.709Z,1.38
2023-03-02T13:48:32.539Z,1.60
2023-03-02T13:51:26.905Z,1.40
2023-03-02T13:54:07.431Z,1.45
2023-03-02T13:56:44.128Z,1.40
2023-03-02T13:59:19.003Z,1.40
2023-03-02T14:01:59.530Z,1.42
2023-03-02T14:04:30.436Z,1.20
2023-03-02T14:07:01.991Z,1.50
2023-03-02T14:09:49.703Z,1.40
2023-03-02T14:12:31.333Z,1.30
2023-03-02T14:15:13.774Z,1.40
2023-03-02T14:17:49.961Z,1.40
2023-03-02T14:20:29.493Z,1.30
2023-03-02T14:23:07.847Z,1.80
2023-03-02T14:25:42.269Z,1.40
2023-03-02T14:28:27.927Z,1.30
2023-03-02T14:31:10.962Z,1.63
2023-03-02T14:33:42.774Z,1.50
2023-03-02T14:36:16.396Z,1.40
2023-03-02T14:38:47.435Z,1.40
2023-03-02T14:41:24.252Z,1.40
2023-03-02T14:43:52.479Z,1.50
2023-03-02T14:46:20.593Z,1.48
2023-03-02T14:48:48.914Z,1.40
2023-03-02T14:51:25.028Z,1.55
2023-03-02T14:54:02.192Z,1.52
2023-03-02T14:56:32.959Z,1.40
2023-03-02T14:59:03.965Z,1.30
2023-03-02T15:01:36.024Z,1.65
2023-03-02T15:04:06.388Z,1.15
2023-03-02T15:06:38.343Z,1.40
2023-03-02T15:09:08.880Z,1.13
2023-03-02T15:11:39.642Z,1.20
2023-03-02T15:14:09.635Z,1.42
2023-03-02T15:16:42.953Z,1.10
2023-03-02T15:19:12.936Z,1.17
2023-03-02T15:21:46.959Z,1.27
2023-03-02T15:24:17.721Z,1.10
2023-03-02T15:26:52.295Z,1.10
2023-03-02T15:29:28.387Z,1.10
2023-03-02T15:31:56.811Z,1.30
2023-03-02T15:34:27.994Z,1.23
2023-03-02T15:36:57.759Z,1.10
2023-03-02T15:39:26.199Z,1.00
2023-03-02T15:42:02.890Z,1.20
2023-03-02T15:44:35.098Z,1.13
2023-03-02T15:47:04.053Z,1.30
2023-03-02T15:49:33.017Z,1.25
2023-03-02T15:52:07.395Z,1.27
2023-03-02T15:54:38.695Z,1.30
2023-03-02T15:57:10.457Z,1.42
2023-03-02T15:59:40.948Z,1.20
2023-03-02T16:02:16.053Z,1.20
2023-03-02T16:04:49.220Z,1.15
2023-03-02T16:07:28.756Z,1.25
2023-03-02T16:10:07.268Z,1.50
2023-03-02T16:12:37.381Z,1.27
2023-03-02T16:15:14.322Z,1.25
2023-03-02T16:17:47.851Z,1.30
2023-03-02T16:20:23.146Z,1.25
2023-03-02T16:22:57.077Z,1.60
2023-03-02T16:25:32.169Z,1.40
2023-03-02T16:28:03.841Z,1.55
2023-03-02T16:30:49.768Z,1.33
2023-03-02T16:33:21.106Z,1.40
2023-03-02T16:35:57.641Z,1.35
2023-03-02T16:38:37.100Z,1.23
2023-03-02T16:41:17.179Z,1.00
2023-03-02T16:43:53.070Z,1.20
2023-03-02T16:46:32.933Z,1.30
2023-03-02T16:49:00.801Z,1.35
2023-03-02T16:51:34.207Z,1.38
2023-03-02T16:54:05.058Z,1.20
2023-03-02T16:56:38.012Z,1.20
2023-03-02T16:59:08.759Z,1.40
2023-03-02T17:01:42.932Z,1.40
2023-03-02T17:04:11.691Z,1.30
2023-03-02T17:07:00.191Z,1.50
2023-03-02T17:09:47.000Z,1.15
2023-03-02T17:12:22.762Z,1.30
2023-03-02T17:15:04.557Z,1.60
2023-03-02T17:17:46.526Z,1.10
2023-03-02T17:20:25.800Z,1.25
2023-03-02T17:23:17.340Z,1.50
2023-03-02T17:25:50.637Z,1.20
2023-03-02T17:28:25.363Z,1.50
2023-03-02T17:30:59.970Z,1.40
2023-03-02T17:33:41.145Z,1.10
2023-03-02T17:36:25.483Z,1.30
2023-03-02T17:39:04.151Z,1.30
2023-03-02T17:41:40.357Z,0.98
2023-03-02T17:44:14.487Z,1.20
2023-03-02T17:46:57.564Z,1.40
2023-03-02T17:49:43.662Z,1.50
2023-03-02T17:52:18.532Z,1.50
2023-03-02T17:54:55.035Z,1.17
2023-03-02T17:57:27.994Z,1.38
2023-03-02T18:00:07.039Z,1.30
2023-03-02T18:02:42.531Z,1.30
2023-03-02T18:05:17.755Z,1.33
2023-03-02T18:07:52.315Z,1.38
2023-03-02T18:10:27.710Z,1.20
2023-03-02T18:13:07.192Z,1.45
2023-03-02T18:15:40.579Z,1.33
2023-03-02T18:18:13.143Z,1.35
2023-03-02T18:20:49.552Z,1.30
2023-03-02T18:23:32.005Z,1.58
2023-03-02T18:26:05.033Z,1.52
2023-03-02T18:29:00.753Z,1.20
2023-03-02T18:31:39.638Z,1.50
2023-03-02T18:34:15.470Z,1.40
2023-03-02T18:36:50.246Z,1.40
2023-03-02T18:39:28.053Z,1.25
2023-03-02T18:42:01.094Z,1.40
2023-03-02T18:44:37.244Z,1.40
2023-03-02T18:47:18.158Z,1.50
2023-03-02T18:49:54.341Z,1.70
2023-03-02T18:52:31.324Z,1.27
2023-03-02T18:55:10.232Z,1.48
2023-03-02T18:57:48.737Z,1.50
2023-03-02T19:00:29.323Z,1.60
2023-03-02T19:03:05.066Z,1.38
2023-03-02T19:05:38.241Z,1.60
2023-03-02T19:08:15.117Z,1.52
2023-03-02T19:10:48.895Z,1.55
2023-03-02T19:13:27.276Z,1.70
2023-03-02T19:16:00.840Z,1.80
2023-03-02T19:18:33.289Z,1.65
2023-03-02T19:21:06.187Z,1.50
2023-03-02T19:26:11.615Z,1.90
2023-03-02T19:28:47.739Z,1.80
2023-03-02T19:31:18.353Z,1.60
2023-03-02T19:33:53.819Z,2.00
2023-03-02T19:36:34.054Z,1.85
2023-03-02T19:39:07.581Z,1.85
2023-03-02T19:41:42.404Z,1.70
2023-03-02T19:44:12.206Z,1.60
2023-03-02T19:46:47.630Z,1.65
2023-03-02T19:49:23.323Z,1.90
2023-03-02T19:51:56.270Z,1.80
2023-03-02T19:54:26.575Z,1.88
2023-03-02T19:56:56.314Z,1.65
2023-03-02T19:59:32.508Z,1.80
2023-03-02T20:02:09.168Z,1.90
2023-03-02T20:04:46.775Z,1.90
2023-03-02T20:07:19.330Z,1.95
2023-03-02T20:09:57.553Z,1.73
2023-03-02T20:12:29.980Z,1.80
2023-03-02T20:15:04.493Z,1.95
2023-03-02T20:17:37.793Z,1.83
2023-03-02T20:20:12.078Z,2.15
2023-03-02T20:22:46.215Z,2.22
2023-03-02T20:25:21.729Z,1.95
2023-03-02T20:27:55.290Z,2.00
2023-03-02T20:30:40.457Z,2.10
2023-03-02T20:33:20.363Z,1.88
2023-03-02T20:35:53.872Z,2.08
2023-03-02T20:38:29.561Z,2.28
2023-03-02T20:41:03.154Z,2.22
2023-03-02T20:46:01.379Z,2.20
2023-03-02T20:48:31.597Z,2.00
2023-03-02T20:51:05.439Z,2.40
2023-03-02T20:53:43.613Z,2.33
2023-03-02T20:56:18.281Z,2.25
2023-03-02T20:58:54.019Z,1.98
2023-03-02T21:01:29.793Z,2.20
2023-03-02T21:04:07.730Z,2.40
2023-03-02T21:06:43.774Z,2.42
2023-03-02T21:09:16.904Z,2.15
2023-03-02T21:11:52.999Z,2.30
2023-03-02T21:14:28.567Z,2.17
2023-03-02T21:17:07.974Z,2.20
2023-03-02T21:19:43.470Z,2.40
2023-03-02T21:22:20.717Z,2.53
2023-03-02T21:24:53.032Z,2.47
2023-03-02T21:27:23.371Z,2.50
2023-03-02T21:30:01.419Z,2.50
2023-03-02T21:32:45.612Z,2.60
2023-03-02T21:35:16.461Z,2.42
2023-03-02T21:37:49.573Z,2.63
2023-03-02T21:40:21.357Z,2.60
2023-03-02T21:42:58.059Z,2.42
2023-03-02T21:45:37.364Z,2.65
2023-03-02T21:48:11.251Z,2.55
2023-03-02T21:50:47.360Z,2.50
2023-03-02T21:53:20.609Z,2.83
2023-03-02T21:55:57.411Z,2.50
2023-03-02T21:58:33.221Z,2.70
2023-03-02T22:01:15.044Z,3.03
2023-03-02T22:03:50.570Z,2.80
2023-03-02T22:06:26.444Z,2.42
2023-03-02T22:08:59.534Z,2.80
2023-03-02T22:11:36.204Z,2.72
2023-03-02T22:17:03.773Z,3.22
2023-03-02T22:19:43.223Z,2.90
2023-03-02T22:22:20.586Z,2.72
2023-03-02T22:25:03.425Z,3.00
2023-03-02T22:27:42.679Z,2.85
2023-03-02T22:30:22.735Z,2.90
2023-03-02T22:32:56.313Z,2.92
2023-03-02T22:35:31.524Z,3.22
2023-03-02T22:38:11.118Z,2.77
2023-03-02T22:40:43.607Z,3.15
2023-03-02T22:43:30.959Z,2.88
2023-03-02T22:46:11.171Z,3.25
2023-03-02T22:48:46.474Z,2.90
2023-03-02T22:51:28.018Z,2.92
2023-03-02T22:54:04.834Z,2.90
2023-03-02T22:56:43.045Z,2.88
2023-03-02T22:59:28.456Z,3.28
2023-03-02T23:02:11.342Z,2.88
2023-03-02T23:04:53.456Z,2.95
2023-03-02T23:07:31.561Z,3.28
2023-03-02T23:10:10.522Z,2.80
2023-03-02T23:12:43.929Z,3.00
2023-03-02T23:15:23.542Z,3.30
2023-03-02T23:18:00.531Z,3.20
2023-03-02T23:20:34.358Z,2.97
2023-03-02T23:23:04.801Z,3.30
2023-03-02T23:25:46.321Z,3.08
2023-03-02T23:28:17.512Z,3.33
2023-03-02T23:30:54.935Z,3.33
2023-03-02T23:33:27.472Z,3.10
2023-03-02T23:36:00.824Z,3.03
2023-03-02T23:38:39.283Z,3.00
2023-03-02T23:41:08.136Z,3.30
2023-03-02T23:43:40.703Z,3.28
2023-03-02T23:46:14.100Z,3.20
2023-03-02T23:51:17.698Z,3.45
2023-03-02T23:53:47.858Z,3.35
2023-03-02T23:56:19.282Z,3.20
2023-03-02T23:58:54.487Z,3.50
